• Join FlightAware (Why Join?)
  • Login
  • US Flag 
12:22AM EDT


 

Airport Tracker/Info


-or-


 

Live Flight TrackerFlight Track Log ✈ JZA8193 ✈ 12-06-2013 ✈ CYKA - CYVR

Flight Track Log - Related Links

Times and Time Zones

All times are in EDT time to prevent confusion due to time zone crossing. See the JZA8193 flight status page for this flight to view local times or setup timezone preferences in your user account.

Time Position Orientation Groundspeed Altitude Reporting Facility
EDT Latitude Longitude Course Direction KTS MPH feet Rate Location/Type
02:46PM 50.7000 -120.4833 270° West 140 161 2,300  Level Vancouver Center
02:47PM 50.7000 -120.5333 270° West 140 161 4,000 1,800 Climbing Vancouver Center
02:48PM 50.6667 -120.5833 224° Southwest 150 173 6,000 1,920 Climbing Vancouver Center
02:49PM 50.6500 -120.6333 242° Southwest 150 173 7,900 1,920 Climbing Vancouver Center
02:50PM 50.6167 -120.6667 212° Southwest 150 173 9,900 1,800 Climbing Vancouver Center
02:51PM 50.5667 -120.7167 212° Southwest 150 173 11,600 1,680 Climbing Vancouver Center
02:52PM 50.5333 -120.7500 212° Southwest 160 184 13,300 1,500 Climbing Vancouver Center
02:53PM 50.5000 -120.8000 224° Southwest 180 207 14,600 1,320 Climbing Vancouver Center
02:54PM 50.4500 -120.8667 220° Southwest 200 230 16,000 660 Climbing Vancouver Center
02:55PM 50.4000 -120.9500 227° Southwest 220 253 16,000  Level Vancouver Center
02:56PM 50.3500 -121.0000 213° Southwest 250 288 16,000  Level Vancouver Center
02:57PM 50.2833 -121.0833 219° Southwest 260 299 16,000  Level Vancouver Center
02:58PM 50.2500 -121.1333 224° Southwest 260 299 16,000  Level Vancouver Center
02:59PM 50.1833 -121.2167 219° Southwest 270 311 16,000  Level Vancouver Center
03:00PM 50.1167 -121.2667 206° Southwest 270 311 16,000  Level Vancouver Center
03:01PM 50.0667 -121.3500 227° Southwest 270 311 16,000  Level Vancouver Center
03:02PM 50.0000 -121.4333 219° Southwest 270 311 16,000  Level Vancouver Center
03:03PM 49.9500 -121.4833 213° Southwest 270 311 16,000  Level Vancouver Center
03:04PM 49.8833 -121.5667 219° Southwest 270 311 16,000  Level Vancouver Center
03:05PM 49.8333 -121.6500 227° Southwest 270 311 16,000  Level Vancouver Center
03:06PM 49.7667 -121.7000 206° Southwest 260 299 16,000  Level Vancouver Center
03:07PM 49.7167 -121.7833 227° Southwest 270 311 16,000  Level Vancouver Center
03:08PM 49.6500 -121.8667 219° Southwest 270 311 16,000  Level Vancouver Center
03:09PM 49.5833 -121.9167 206° Southwest 270 311 16,000  Level Vancouver Center
03:10PM 49.5333 -122.0000 227° Southwest 270 311 16,000  Level Vancouver Center
03:11PM 49.5000 -122.0833 238° Southwest 270 311 16,000  Level Vancouver Center
03:12PM 49.4500 -122.1833 232° Southwest 270 311 16,000  Level Vancouver Center
03:13PM 49.4167 -122.2833 243° Southwest 270 311 16,000  Level Vancouver Center
03:14PM 49.3833 -122.3667 238° Southwest 270 311 16,000  Level Vancouver Center
03:15PM 49.3333 -122.4667 233° Southwest 270 311 16,000 -480 Level Vancouver Center
03:16PM 49.3000 -122.5667 243° Southwest 280 322 15,100 -1,200 Descending Vancouver Center
03:17PM 49.2500 -122.6667 233° Southwest 270 311 13,600 -1,440 Descending Vancouver Center
03:18PM 49.2333 -122.7833 258° West 260 299 12,300 -1,260 Descending Vancouver Center
03:19PM 49.2167 -122.8833 256° West 250 288 11,100 -1,200 Descending Vancouver Center
03:20PM 49.2333 -122.9833 284° West 240 276 10,000 -900 Descending Vancouver Center
03:21PM 49.2500 -123.0833 284° West 230 265 9,300 -1,440 Descending Vancouver Center
03:22PM 49.2500 -123.1833 270° West 220 253 7,200 -1,200 Descending Vancouver Center
03:23PM 49.2667 -123.2667 287° West 210 242 7,000 -180 Descending Vancouver Center
03:24PM 49.2667 -123.3667 270° West 210 242 6,900 -660 Descending Vancouver Center
03:25PM 49.2833 -123.4333 291° West 210 242 5,700 -1,140 Descending Vancouver Center
03:26PM 49.3000 -123.5167 287° West 210 242 4,700 -900 Descending Vancouver Center
03:27PM 49.2500 -123.5500 204° Southwest 200 230 4,000 -660 Descending Vancouver Center
03:28PM 49.2167 -123.5000 136° Southeast 200 230 3,400 -600 Descending Vancouver Center
03:29PM 49.2000 -123.4167 107° East 200 230 2,800 -600 Descending Vancouver Center